createdAt,value
2019-04-30T00:00:18.321Z,1004.79
2019-04-30T00:01:18.879Z,1004.79
2019-04-30T00:02:17.211Z,1004.74
2019-04-30T00:03:19.577Z,1004.74
2019-04-30T00:04:17.192Z,1004.74
2019-04-30T00:05:18.873Z,1004.74
2019-04-30T00:06:17.165Z,1004.76
2019-04-30T00:07:19.027Z,1004.76
2019-04-30T00:08:17.164Z,1004.75
2019-04-30T00:09:19.054Z,1004.76
2019-04-30T00:10:17.124Z,1004.73
2019-04-30T00:11:19.523Z,1004.76
2019-04-30T00:12:17.104Z,1004.75
2019-04-30T00:13:20.672Z,1004.72
2019-04-30T00:14:17.078Z,1004.74
2019-04-30T00:15:19.516Z,1004.68
2019-04-30T00:16:17.053Z,1004.65
2019-04-30T00:17:19.599Z,1004.66
2019-04-30T00:18:17.055Z,1004.64
2019-04-30T00:19:19.590Z,1004.68
2019-04-30T00:20:17.753Z,1004.68
2019-04-30T00:21:18.719Z,1004.65
2019-04-30T00:22:17.007Z,1004.63
2019-04-30T00:23:18.062Z,1004.63
2019-04-30T00:24:17.983Z,1004.70
2019-04-30T00:25:19.621Z,1004.65
2019-04-30T00:26:17.938Z,1004.59
2019-04-30T00:27:21.100Z,1004.57
2019-04-30T00:28:17.915Z,1004.57
2019-04-30T00:29:26.546Z,1004.57
2019-04-30T00:30:17.896Z,1004.60
2019-04-30T00:31:23.460Z,1004.60
2019-04-30T00:32:17.871Z,1004.61
2019-04-30T00:33:22.056Z,1004.61
2019-04-30T00:34:17.873Z,1004.62
2019-04-30T00:35:19.490Z,1004.61
2019-04-30T00:36:17.401Z,1004.61
2019-04-30T00:37:18.792Z,1004.59
2019-04-30T00:38:16.808Z,1004.60
2019-04-30T00:39:16.880Z,1004.59
2019-04-30T00:40:16.782Z,1004.62
2019-04-30T00:41:16.770Z,1004.59
2019-04-30T00:42:23.918Z,1004.58
2019-04-30T00:43:17.747Z,1004.62
2019-04-30T00:44:19.898Z,1004.62
2019-04-30T00:45:17.724Z,1004.61
2019-04-30T00:46:24.494Z,1004.61
2019-04-30T00:47:17.702Z,1004.60
2019-04-30T00:48:26.594Z,1004.60
2019-04-30T00:49:22.906Z,1004.60
2019-04-30T00:50:17.669Z,1004.58
2019-04-30T00:51:20.975Z,1004.58
2019-04-30T00:52:16.650Z,1004.62
2019-04-30T00:53:16.736Z,1004.58
2019-04-30T00:54:17.632Z,1004.59
2019-04-30T00:55:16.613Z,1004.56
2019-04-30T00:56:19.868Z,1004.59
2019-04-30T00:57:17.592Z,1004.56
2019-04-30T00:58:24.471Z,1004.56
2019-04-30T00:59:17.588Z,1004.59
2019-04-30T01:00:19.668Z,1004.57
2019-04-30T01:01:17.554Z,1004.58
2019-04-30T01:02:19.915Z,1004.55
2019-04-30T01:03:17.521Z,1004.52
2019-04-30T01:04:19.424Z,1004.53
2019-04-30T01:05:17.498Z,1004.56
2019-04-30T01:06:17.188Z,1004.52
2019-04-30T01:07:17.475Z,1004.54
2019-04-30T01:08:16.466Z,1004.52
2019-04-30T01:09:16.476Z,1004.46
2019-04-30T01:10:19.562Z,1004.49
2019-04-30T01:11:17.435Z,1004.51
2019-04-30T01:12:17.361Z,1004.52
2019-04-30T01:13:19.071Z,1004.49
2019-04-30T01:14:16.423Z,1004.50
2019-04-30T01:15:16.388Z,1004.51
2019-04-30T01:16:16.380Z,1004.50
2019-04-30T01:17:16.365Z,1004.51
2019-04-30T01:18:16.353Z,1004.48
2019-04-30T01:19:28.923Z,1004.41
2019-04-30T01:20:19.240Z,1004.49
2019-04-30T01:21:16.325Z,1004.48
2019-04-30T01:22:21.288Z,1004.46
2019-04-30T01:23:17.301Z,1004.44
2019-04-30T01:24:16.308Z,1004.45
2019-04-30T01:25:16.296Z,1004.44
2019-04-30T01:26:16.264Z,1004.51
2019-04-30T01:27:16.252Z,1004.53
2019-04-30T01:28:20.219Z,1004.52
2019-04-30T01:29:19.115Z,1004.46
2019-04-30T01:30:18.693Z,1004.44
2019-04-30T01:31:18.785Z,1004.39
2019-04-30T01:32:19.867Z,1004.40
2019-04-30T01:33:16.186Z,1004.42
2019-04-30T01:34:16.173Z,1004.45
2019-04-30T01:35:16.184Z,1004.40
2019-04-30T01:36:16.151Z,1004.42
2019-04-30T01:37:16.140Z,1004.46
2019-04-30T01:38:16.131Z,1004.42
2019-04-30T01:39:16.122Z,1004.42
2019-04-30T01:40:16.126Z,1004.40
2019-04-30T01:41:20.249Z,1004.43
2019-04-30T01:42:18.502Z,1004.39
2019-04-30T01:43:16.072Z,1004.40
2019-04-30T01:44:16.064Z,1004.36
2019-04-30T01:45:16.070Z,1004.37
2019-04-30T01:46:16.038Z,1004.38
2019-04-30T01:47:16.034Z,1004.37
2019-04-30T01:48:16.015Z,1004.38
2019-04-30T01:49:16.004Z,1004.40
2019-04-30T01:50:16.014Z,1004.37
2019-04-30T01:51:20.470Z,1004.40
2019-04-30T01:52:16.972Z,1004.37
2019-04-30T01:53:15.959Z,1004.40
2019-04-30T01:54:21.132Z,1004.35
2019-04-30T01:55:16.959Z,1004.39
2019-04-30T01:56:15.926Z,1004.39
2019-04-30T01:57:15.913Z,1004.36
2019-04-30T01:58:15.904Z,1004.36
2019-04-30T01:59:15.895Z,1004.36
2019-04-30T02:00:15.906Z,1004.36
2019-04-30T02:01:15.871Z,1004.34
2019-04-30T02:02:15.857Z,1004.40
2019-04-30T02:03:15.848Z,1004.35
2019-04-30T02:04:15.835Z,1004.39
2019-04-30T02:05:15.849Z,1004.40
2019-04-30T02:06:15.818Z,1004.40
2019-04-30T02:07:15.804Z,1004.38
2019-04-30T02:08:15.790Z,1004.42
2019-04-30T02:09:15.780Z,1004.39
2019-04-30T02:10:15.793Z,1004.41
2019-04-30T02:11:15.756Z,1004.38
2019-04-30T02:12:15.745Z,1004.39
2019-04-30T02:13:15.733Z,1004.40
2019-04-30T02:14:15.724Z,1004.38
2019-04-30T02:15:15.733Z,1004.44
2019-04-30T02:16:15.704Z,1004.45
2019-04-30T02:17:15.688Z,1004.48
2019-04-30T02:18:15.677Z,1004.46
2019-04-30T02:19:15.690Z,1004.47
2019-04-30T02:20:15.660Z,1004.44
2019-04-30T02:21:15.664Z,1004.46
2019-04-30T02:22:15.633Z,1004.48
2019-04-30T02:23:15.621Z,1004.47
2019-04-30T02:24:15.611Z,1004.48
2019-04-30T02:25:15.598Z,1004.44
2019-04-30T02:26:15.613Z,1004.47
2019-04-30T02:27:15.576Z,1004.48
2019-04-30T02:28:15.566Z,1004.49
2019-04-30T02:29:15.554Z,1004.45
2019-04-30T02:30:15.544Z,1004.44
2019-04-30T02:31:15.557Z,1004.43
2019-04-30T02:32:15.543Z,1004.41
2019-04-30T02:33:15.513Z,1004.44
2019-04-30T02:34:15.498Z,1004.42
2019-04-30T02:35:15.489Z,1004.46
2019-04-30T02:36:15.496Z,1004.42
2019-04-30T02:37:15.464Z,1004.40
2019-04-30T02:38:15.453Z,1004.43
2019-04-30T02:39:15.441Z,1004.38
2019-04-30T02:40:15.432Z,1004.40
2019-04-30T02:41:15.444Z,1004.37
2019-04-30T02:42:15.411Z,1004.39
2019-04-30T02:43:15.395Z,1004.35
2019-04-30T02:44:15.386Z,1004.39
2019-04-30T02:45:15.394Z,1004.36
2019-04-30T02:46:15.361Z,1004.40
2019-04-30T02:47:15.386Z,1004.37
2019-04-30T02:48:15.343Z,1004.35
2019-04-30T02:49:15.333Z,1004.33
2019-04-30T02:50:18.655Z,1004.33
2019-04-30T02:51:16.311Z,1004.33
2019-04-30T02:52:15.316Z,1004.36
2019-04-30T02:53:15.283Z,1004.36
2019-04-30T02:54:15.271Z,1004.35
2019-04-30T02:55:15.266Z,1004.38
2019-04-30T02:56:15.256Z,1004.40
2019-04-30T02:57:15.266Z,1004.34
2019-04-30T02:58:15.229Z,1004.38
2019-04-30T02:59:15.214Z,1004.37
2019-04-30T03:00:15.205Z,1004.40
2019-04-30T03:01:15.197Z,1004.39
2019-04-30T03:02:15.203Z,1004.42
2019-04-30T03:03:15.171Z,1004.42
2019-04-30T03:04:15.158Z,1004.42
2019-04-30T03:05:15.151Z,1004.43
2019-04-30T03:06:15.142Z,1004.42
2019-04-30T03:07:15.149Z,1004.41
2019-04-30T03:08:15.123Z,1004.39
2019-04-30T03:09:15.102Z,1004.39
2019-04-30T03:10:15.093Z,1004.38
2019-04-30T03:11:15.084Z,1004.34
2019-04-30T03:12:15.094Z,1004.37
2019-04-30T03:13:15.057Z,1004.40
2019-04-30T03:14:15.046Z,1004.33
2019-04-30T03:15:15.042Z,1004.33
2019-04-30T03:16:15.024Z,1004.34
2019-04-30T03:17:15.035Z,1004.34
2019-04-30T03:18:15.000Z,1004.35
2019-04-30T03:19:14.991Z,1004.34
2019-04-30T03:20:27.995Z,1004.36
2019-04-30T03:21:15.965Z,1004.32
2019-04-30T03:22:14.977Z,1004.34
2019-04-30T03:23:14.953Z,1004.31
2019-04-30T03:24:14.934Z,1004.32
2019-04-30T03:25:14.937Z,1004.33
2019-04-30T03:26:14.911Z,1004.30
2019-04-30T03:27:14.921Z,1004.32
2019-04-30T03:28:14.890Z,1004.30
2019-04-30T03:29:14.876Z,1004.29
2019-04-30T03:30:14.889Z,1004.24
2019-04-30T03:31:14.854Z,1004.26
2019-04-30T03:32:14.905Z,1004.31
2019-04-30T03:33:14.834Z,1004.28
2019-04-30T03:34:23.294Z,1004.24
2019-04-30T03:35:15.828Z,1004.26
2019-04-30T03:36:14.799Z,1004.28
2019-04-30T03:37:14.815Z,1004.26
2019-04-30T03:38:14.775Z,1004.26
2019-04-30T03:39:14.772Z,1004.22
2019-04-30T03:40:14.753Z,1004.26
2019-04-30T03:41:14.742Z,1004.25
2019-04-30T03:42:14.729Z,1004.23
2019-04-30T03:43:14.740Z,1004.27
2019-04-30T03:44:21.611Z,1004.27
2019-04-30T03:45:15.697Z,1004.27
2019-04-30T03:46:14.686Z,1004.28
2019-04-30T03:47:14.673Z,1004.27
2019-04-30T03:48:14.693Z,1004.25
2019-04-30T03:49:14.651Z,1004.25
2019-04-30T03:50:14.641Z,1004.26
2019-04-30T03:51:14.629Z,1004.30
2019-04-30T03:52:14.621Z,1004.28
2019-04-30T03:53:14.628Z,1004.25
2019-04-30T03:54:14.603Z,1004.25
2019-04-30T03:55:14.589Z,1004.25
2019-04-30T03:56:14.577Z,1004.22
2019-04-30T03:57:14.561Z,1004.27
2019-04-30T03:58:14.573Z,1004.26
2019-04-30T03:59:14.539Z,1004.23
2019-04-30T04:00:14.529Z,1004.21
2019-04-30T04:01:14.516Z,1004.27
2019-04-30T04:02:14.509Z,1004.20
2019-04-30T04:03:14.520Z,1004.18
2019-04-30T04:04:14.497Z,1004.15
2019-04-30T04:05:14.471Z,1004.20
2019-04-30T04:06:14.460Z,1004.18
2019-04-30T04:07:14.449Z,1004.19
2019-04-30T04:08:14.459Z,1004.22
2019-04-30T04:09:14.425Z,1004.22
2019-04-30T04:10:14.415Z,1004.21
2019-04-30T04:11:14.403Z,1004.22
2019-04-30T04:12:14.391Z,1004.20
2019-04-30T04:13:14.407Z,1004.21
2019-04-30T04:14:14.370Z,1004.19
2019-04-30T04:15:14.357Z,1004.21
2019-04-30T04:16:14.368Z,1004.17
2019-04-30T04:17:14.336Z,1004.19
2019-04-30T04:18:14.325Z,1004.16
2019-04-30T04:19:14.335Z,1004.17
2019-04-30T04:20:14.305Z,1004.22
2019-04-30T04:21:16.955Z,1004.21
2019-04-30T04:22:14.279Z,1004.17
2019-04-30T04:23:14.270Z,1004.17
2019-04-30T04:24:14.280Z,1004.17
2019-04-30T04:25:14.246Z,1004.19
2019-04-30T04:26:14.233Z,1004.22
2019-04-30T04:27:14.223Z,1004.22
2019-04-30T04:28:14.212Z,1004.19
2019-04-30T04:29:14.221Z,1004.20
2019-04-30T04:30:14.192Z,1004.22
2019-04-30T04:31:14.177Z,1004.20
2019-04-30T04:32:14.168Z,1004.17
2019-04-30T04:33:14.156Z,1004.19
2019-04-30T04:34:14.165Z,1004.20
2019-04-30T04:35:14.149Z,1004.16
2019-04-30T04:36:14.136Z,1004.12
2019-04-30T04:37:14.113Z,1004.16
2019-04-30T04:38:14.102Z,1004.13
2019-04-30T04:39:14.109Z,1004.15
2019-04-30T04:40:14.078Z,1004.12
2019-04-30T04:41:14.067Z,1004.16
2019-04-30T04:42:14.057Z,1004.15
2019-04-30T04:43:14.042Z,1004.15
2019-04-30T04:44:14.053Z,1004.13
2019-04-30T04:45:14.024Z,1004.16
2019-04-30T04:46:14.010Z,1004.15
2019-04-30T04:47:16.067Z,1004.15
2019-04-30T04:48:13.989Z,1004.15
2019-04-30T04:49:13.998Z,1004.15
2019-04-30T04:50:13.966Z,1004.18
2019-04-30T04:51:27.750Z,1004.15
2019-04-30T04:52:14.946Z,1004.16
2019-04-30T04:53:13.929Z,1004.14
2019-04-30T04:54:13.926Z,1004.13
2019-04-30T04:55:13.932Z,1004.18
2019-04-30T04:56:13.895Z,1004.16
2019-04-30T04:57:17.957Z,1004.15
2019-04-30T04:58:14.874Z,1004.16
2019-04-30T04:59:13.881Z,1004.19
2019-04-30T05:00:13.878Z,1004.15
2019-04-30T05:01:13.843Z,1004.15
2019-04-30T05:02:13.828Z,1004.12
2019-04-30T05:03:13.817Z,1004.15
2019-04-30T05:04:13.806Z,1004.17
2019-04-30T05:05:13.816Z,1004.19
2019-04-30T05:06:13.783Z,1004.15
2019-04-30T05:07:13.786Z,1004.20
2019-04-30T05:08:13.761Z,1004.20
2019-04-30T05:09:13.749Z,1004.17
2019-04-30T05:10:13.764Z,1004.19
2019-04-30T05:11:13.739Z,1004.22
2019-04-30T05:12:13.714Z,1004.21
2019-04-30T05:13:13.703Z,1004.18
2019-04-30T05:14:13.692Z,1004.19
2019-04-30T05:15:13.702Z,1004.24
2019-04-30T05:16:13.673Z,1004.24
2019-04-30T05:17:13.661Z,1004.26
2019-04-30T05:18:13.671Z,1004.26
2019-04-30T05:19:13.636Z,1004.29
2019-04-30T05:20:13.624Z,1004.25
2019-04-30T05:21:13.634Z,1004.25
2019-04-30T05:22:13.605Z,1004.24
2019-04-30T05:23:13.594Z,1004.23
2019-04-30T05:24:13.579Z,1004.23
2019-04-30T05:25:13.568Z,1004.22
2019-04-30T05:26:13.579Z,1004.21
2019-04-30T05:27:13.545Z,1004.17
2019-04-30T05:28:13.533Z,1004.18
2019-04-30T05:29:13.527Z,1004.22
2019-04-30T05:30:13.511Z,1004.21
2019-04-30T05:31:13.521Z,1004.20
2019-04-30T05:32:13.489Z,1004.16
2019-04-30T05:33:13.481Z,1004.21
2019-04-30T05:34:13.466Z,1004.15
2019-04-30T05:35:13.456Z,1004.17
2019-04-30T05:36:13.476Z,1004.18
2019-04-30T05:37:13.434Z,1004.18
2019-04-30T05:38:13.424Z,1004.21
2019-04-30T05:39:13.416Z,1004.19
2019-04-30T05:40:13.399Z,1004.21
2019-04-30T05:41:13.410Z,1004.19
2019-04-30T05:42:13.377Z,1004.17
2019-04-30T05:43:13.369Z,1004.16
2019-04-30T05:44:13.357Z,1004.20
2019-04-30T05:45:13.351Z,1004.20
2019-04-30T05:46:14.138Z,1004.19
2019-04-30T05:47:13.321Z,1004.21
2019-04-30T05:48:13.313Z,1004.22
2019-04-30T05:49:13.298Z,1004.24
2019-04-30T05:50:13.292Z,1004.26
2019-04-30T05:51:13.275Z,1004.22
2019-04-30T05:52:13.858Z,1004.21
2019-04-30T05:53:13.257Z,1004.25
2019-04-30T05:54:13.241Z,1004.20
2019-04-30T05:55:13.231Z,1004.25
2019-04-30T05:56:13.219Z,1004.24
2019-04-30T05:57:13.229Z,1004.23
2019-04-30T05:58:13.201Z,1004.24
2019-04-30T05:59:16.598Z,1004.26
2019-04-30T06:00:13.176Z,1004.23
2019-04-30T06:01:13.164Z,1004.26
2019-04-30T06:02:13.176Z,1004.24
2019-04-30T06:03:24.965Z,1004.27
2019-04-30T06:04:14.128Z,1004.26
2019-04-30T06:05:13.120Z,1004.27
2019-04-30T06:06:13.121Z,1004.24
2019-04-30T06:07:13.117Z,1004.25
2019-04-30T06:08:13.087Z,1004.23
2019-04-30T06:09:22.574Z,1004.29
2019-04-30T06:10:14.060Z,1004.27
2019-04-30T06:11:13.050Z,1004.25
2019-04-30T06:12:13.043Z,1004.28
2019-04-30T06:13:13.064Z,1004.31
2019-04-30T06:14:13.017Z,1004.28
2019-04-30T06:15:13.005Z,1004.32
2019-04-30T06:16:12.994Z,1004.32
2019-04-30T06:17:12.982Z,1004.36
2019-04-30T06:18:14.070Z,1004.38
2019-04-30T06:19:12.961Z,1004.35
2019-04-30T06:20:18.434Z,1004.37
2019-04-30T06:21:13.944Z,1004.36
2019-04-30T06:22:12.926Z,1004.39
2019-04-30T06:23:12.937Z,1004.43
2019-04-30T06:24:12.909Z,1004.40
2019-04-30T06:25:12.906Z,1004.45
2019-04-30T06:26:13.311Z,1004.45
2019-04-30T06:27:12.871Z,1004.46
2019-04-30T06:28:12.880Z,1004.46
2019-04-30T06:29:12.851Z,1004.47
2019-04-30T06:30:12.836Z,1004.50
2019-04-30T06:31:12.830Z,1004.46
2019-04-30T06:32:12.814Z,1004.47
2019-04-30T06:33:12.844Z,1004.48
2019-04-30T06:34:12.792Z,1004.49
2019-04-30T06:35:12.780Z,1004.48
2019-04-30T06:36:12.774Z,1004.47
2019-04-30T06:37:12.757Z,1004.49
2019-04-30T06:38:12.746Z,1004.48
2019-04-30T06:39:12.756Z,1004.47
2019-04-30T06:40:12.724Z,1004.46
2019-04-30T06:41:12.712Z,1004.45
2019-04-30T06:42:13.088Z,1004.41
2019-04-30T06:43:12.693Z,1004.44
2019-04-30T06:44:12.700Z,1004.47
2019-04-30T06:45:12.669Z,1004.45
2019-04-30T06:46:12.656Z,1004.51
2019-04-30T06:47:12.645Z,1004.46
2019-04-30T06:48:12.642Z,1004.46
2019-04-30T06:49:12.648Z,1004.47
2019-04-30T06:50:12.624Z,1004.50
2019-04-30T06:51:12.601Z,1004.51
2019-04-30T06:52:20.703Z,1004.49
2019-04-30T06:53:13.581Z,1004.55
2019-04-30T06:54:12.587Z,1004.52
2019-04-30T06:55:12.558Z,1004.54
2019-04-30T06:56:12.543Z,1004.50
2019-04-30T06:57:12.545Z,1004.49
2019-04-30T06:58:15.448Z,1004.50
2019-04-30T06:59:12.536Z,1004.49
2019-04-30T07:00:12.498Z,1004.51
2019-04-30T07:01:12.487Z,1004.52
2019-04-30T07:02:12.477Z,1004.52
2019-04-30T07:03:12.463Z,1004.49
2019-04-30T07:04:12.475Z,1004.53
2019-04-30T07:05:12.444Z,1004.54
2019-04-30T07:06:12.435Z,1004.53
2019-04-30T07:07:14.372Z,1004.48
2019-04-30T07:08:13.407Z,1004.58
2019-04-30T07:09:12.421Z,1004.49
2019-04-30T07:10:16.880Z,1004.50
2019-04-30T07:11:13.375Z,1004.49
2019-04-30T07:12:22.842Z,1004.46
2019-04-30T07:13:13.354Z,1004.47
2019-04-30T07:14:12.386Z,1004.51
2019-04-30T07:15:13.726Z,1004.49
2019-04-30T07:16:12.318Z,1004.53
2019-04-30T07:17:12.310Z,1004.53
2019-04-30T07:18:12.296Z,1004.54
2019-04-30T07:19:12.305Z,1004.53
2019-04-30T07:20:12.273Z,1004.61
2019-04-30T07:21:12.263Z,1004.56
2019-04-30T07:22:12.253Z,1004.58
2019-04-30T07:23:12.240Z,1004.59
2019-04-30T07:24:12.250Z,1004.57
2019-04-30T07:25:12.217Z,1004.63
2019-04-30T07:26:13.749Z,1004.62
2019-04-30T07:27:13.193Z,1004.63
2019-04-30T07:28:12.186Z,1004.61
2019-04-30T07:29:12.378Z,1004.63
2019-04-30T07:30:12.162Z,1004.61
2019-04-30T07:31:14.462Z,1004.62
2019-04-30T07:32:12.140Z,1004.64
2019-04-30T07:33:12.132Z,1004.60
2019-04-30T07:34:12.150Z,1004.60
2019-04-30T07:35:12.130Z,1004.60
2019-04-30T07:36:12.101Z,1004.63
2019-04-30T07:37:20.676Z,1004.70
2019-04-30T07:38:13.076Z,1004.66
2019-04-30T07:39:12.062Z,1004.67
2019-04-30T07:40:12.072Z,1004.67
2019-04-30T07:41:12.041Z,1004.66
2019-04-30T07:42:12.030Z,1004.69
2019-04-30T07:43:12.019Z,1004.72
2019-04-30T07:44:29.404Z,1004.73
2019-04-30T07:45:13.024Z,1004.73
2019-04-30T07:46:11.985Z,1004.74
2019-04-30T07:47:11.972Z,1004.70
2019-04-30T07:48:11.961Z,1004.68
2019-04-30T07:49:12.087Z,1004.72
2019-04-30T07:50:12.263Z,1004.70
2019-04-30T07:51:12.452Z,1004.73
2019-04-30T07:52:12.703Z,1004.77
2019-04-30T07:53:12.409Z,1004.78
2019-04-30T07:54:11.893Z,1004.77
2019-04-30T07:55:11.882Z,1004.76
2019-04-30T07:56:24.399Z,1004.82
2019-04-30T07:57:12.860Z,1004.78
2019-04-30T07:58:11.849Z,1004.76
2019-04-30T07:59:11.839Z,1004.77
2019-04-30T08:00:11.827Z,1004.76
2019-04-30T08:01:11.837Z,1004.80
2019-04-30T08:02:14.634Z,1004.80
2019-04-30T08:03:11.968Z,1004.81
2019-04-30T08:04:11.781Z,1004.84
2019-04-30T08:05:11.770Z,1004.85
2019-04-30T08:06:11.809Z,1004.84
2019-04-30T08:07:11.831Z,1004.84
2019-04-30T08:08:21.328Z,1004.88
2019-04-30T08:09:12.725Z,1004.84
2019-04-30T08:10:11.716Z,1004.85
2019-04-30T08:11:22.918Z,1004.88
2019-04-30T08:12:22.206Z,1004.90
2019-04-30T08:13:15.108Z,1004.89
2019-04-30T08:14:11.676Z,1004.87
2019-04-30T08:15:11.660Z,1004.86
2019-04-30T08:16:11.669Z,1004.82
2019-04-30T08:17:11.636Z,1004.88
2019-04-30T08:18:11.630Z,1004.87
2019-04-30T08:19:11.620Z,1004.89
2019-04-30T08:20:11.607Z,1004.89
2019-04-30T08:21:11.619Z,1004.89
2019-04-30T08:22:11.581Z,1004.85
2019-04-30T08:23:17.343Z,1004.84
2019-04-30T08:24:12.557Z,1004.82
2019-04-30T08:25:11.570Z,1004.83
2019-04-30T08:26:11.570Z,1004.84
2019-04-30T08:27:11.525Z,1004.85
2019-04-30T08:28:11.520Z,1004.81
2019-04-30T08:29:11.504Z,1004.82
2019-04-30T08:30:21.350Z,1004.85
2019-04-30T08:31:12.514Z,1004.86
2019-04-30T08:32:11.470Z,1004.85
2019-04-30T08:33:11.462Z,1004.84
2019-04-30T08:34:11.520Z,1004.85
2019-04-30T08:35:11.438Z,1004.84
2019-04-30T08:36:11.424Z,1004.83
2019-04-30T08:37:17.286Z,1004.82
2019-04-30T08:38:12.400Z,1004.78
2019-04-30T08:39:11.392Z,1004.84
2019-04-30T08:40:11.382Z,1004.83
2019-04-30T08:41:11.369Z,1004.80
2019-04-30T08:42:11.384Z,1004.83
2019-04-30T08:43:11.351Z,1004.89
2019-04-30T08:44:11.338Z,1004.79
2019-04-30T08:45:11.323Z,1004.78
2019-04-30T08:46:11.316Z,1004.80
2019-04-30T08:47:11.323Z,1004.80
2019-04-30T08:48:11.294Z,1004.79
2019-04-30T08:49:11.372Z,1004.74
2019-04-30T08:50:11.582Z,1004.77
2019-04-30T08:51:13.658Z,1004.78
2019-04-30T08:52:11.620Z,1004.81
2019-04-30T08:53:11.672Z,1004.80
2019-04-30T08:54:11.226Z,1004.79
2019-04-30T08:55:16.441Z,1004.77
2019-04-30T08:56:12.204Z,1004.77
2019-04-30T08:57:11.213Z,1004.77
2019-04-30T08:58:14.943Z,1004.79
2019-04-30T08:59:11.410Z,1004.81
2019-04-30T09:00:11.859Z,1004.79
2019-04-30T09:01:11.149Z,1004.77
2019-04-30T09:02:15.830Z,1004.76
2019-04-30T09:03:12.130Z,1004.79
2019-04-30T09:04:11.115Z,1004.76
2019-04-30T09:05:11.105Z,1004.74
2019-04-30T09:06:11.109Z,1004.75
2019-04-30T09:07:11.078Z,1004.74
2019-04-30T09:08:11.092Z,1004.77
2019-04-30T09:09:11.243Z,1004.77
2019-04-30T09:10:11.048Z,1004.79
2019-04-30T09:11:22.383Z,1004.74
2019-04-30T09:12:12.021Z,1004.77
2019-04-30T09:13:11.057Z,1004.74
2019-04-30T09:14:10.999Z,1004.74
2019-04-30T09:15:10.989Z,1004.77
2019-04-30T09:16:10.978Z,1004.77
2019-04-30T09:17:10.966Z,1004.78
2019-04-30T09:18:12.635Z,1004.76
2019-04-30T09:19:10.965Z,1004.74
2019-04-30T09:20:10.934Z,1004.73
2019-04-30T09:21:10.924Z,1004.68
2019-04-30T09:22:14.895Z,1004.70
2019-04-30T09:23:11.307Z,1004.70
2019-04-30T09:24:10.909Z,1004.70
2019-04-30T09:25:10.877Z,1004.70
2019-04-30T09:26:10.866Z,1004.69
2019-04-30T09:27:10.913Z,1004.74
2019-04-30T09:28:10.847Z,1004.80
2019-04-30T09:29:10.858Z,1004.79
2019-04-30T09:30:10.820Z,1004.80
2019-04-30T09:31:10.810Z,1004.75
2019-04-30T09:32:10.798Z,1004.81
2019-04-30T09:33:11.168Z,1004.80
2019-04-30T09:34:17.135Z,1004.74
2019-04-30T09:35:11.771Z,1004.74
2019-04-30T09:36:10.758Z,1004.75
2019-04-30T09:37:10.746Z,1004.80
2019-04-30T09:38:10.734Z,1004.79
2019-04-30T09:39:10.746Z,1004.77
2019-04-30T09:40:18.322Z,1004.76
2019-04-30T09:41:11.699Z,1004.75
2019-04-30T09:42:10.691Z,1004.75
2019-04-30T09:43:10.681Z,1004.76
2019-04-30T09:44:10.687Z,1004.76
2019-04-30T09:45:10.658Z,1004.73
2019-04-30T09:46:19.197Z,1004.72
2019-04-30T09:47:11.629Z,1004.72
2019-04-30T09:48:10.623Z,1004.70
2019-04-30T09:49:10.629Z,1004.69
2019-04-30T09:50:10.598Z,1004.71
2019-04-30T09:51:11.260Z,1004.74
2019-04-30T09:52:10.744Z,1004.78
2019-04-30T09:53:10.970Z,1004.75
2019-04-30T09:54:12.805Z,1004.70
2019-04-30T09:55:10.820Z,1004.71
2019-04-30T09:56:10.530Z,1004.72
2019-04-30T09:57:11.441Z,1004.72
2019-04-30T09:58:16.995Z,1004.66
2019-04-30T09:59:11.525Z,1004.64
2019-04-30T10:00:10.484Z,1004.69
2019-04-30T10:01:10.472Z,1004.66
2019-04-30T10:02:10.463Z,1004.63
2019-04-30T10:03:11.491Z,1004.62
2019-04-30T10:04:11.180Z,1004.65
2019-04-30T10:05:11.019Z,1004.63
2019-04-30T10:06:10.420Z,1004.65
2019-04-30T10:07:10.409Z,1004.66
2019-04-30T10:08:10.394Z,1004.62
2019-04-30T10:09:10.383Z,1004.62
2019-04-30T10:10:11.384Z,1004.60
2019-04-30T10:11:10.367Z,1004.58
2019-04-30T10:12:10.350Z,1004.61
2019-04-30T10:13:10.342Z,1004.57
2019-04-30T10:14:10.328Z,1004.58
2019-04-30T10:15:10.339Z,1004.59
2019-04-30T10:16:10.310Z,1004.58
2019-04-30T10:17:10.293Z,1004.54
2019-04-30T10:18:10.286Z,1004.58
2019-04-30T10:19:10.372Z,1004.50
2019-04-30T10:20:10.285Z,1004.46
2019-04-30T10:21:10.248Z,1004.50
2019-04-30T10:22:10.240Z,1004.48
2019-04-30T10:23:10.230Z,1004.45
2019-04-30T10:24:14.967Z,1004.44
2019-04-30T10:25:11.228Z,1004.50
2019-04-30T10:26:10.192Z,1004.46
2019-04-30T10:27:13.094Z,1004.50
2019-04-30T10:28:10.296Z,1004.55
2019-04-30T10:29:10.179Z,1004.56
2019-04-30T10:30:10.171Z,1004.54
2019-04-30T10:31:10.149Z,1004.45
2019-04-30T10:32:10.125Z,1004.43
2019-04-30T10:33:10.191Z,1004.44
2019-04-30T10:34:10.104Z,1004.45
2019-04-30T10:35:10.118Z,1004.45
2019-04-30T10:36:11.699Z,1004.48
2019-04-30T10:37:10.099Z,1004.44
2019-04-30T10:38:10.299Z,1004.41
2019-04-30T10:39:10.085Z,1004.41
2019-04-30T10:40:11.808Z,1004.36
2019-04-30T10:41:10.145Z,1004.36
2019-04-30T10:42:10.152Z,1004.38
2019-04-30T10:43:11.077Z,1004.39
2019-04-30T10:44:09.993Z,1004.36
2019-04-30T10:45:10.098Z,1004.36
2019-04-30T10:46:10.102Z,1004.37
2019-04-30T10:47:10.023Z,1004.33
2019-04-30T10:48:09.966Z,1004.30
2019-04-30T10:49:09.977Z,1004.29
2019-04-30T10:50:10.135Z,1004.29
2019-04-30T10:51:10.465Z,1004.32
2019-04-30T10:52:09.900Z,1004.28
2019-04-30T10:53:12.196Z,1004.26
2019-04-30T10:54:09.877Z,1004.26
2019-04-30T10:55:09.867Z,1004.22
2019-04-30T10:56:09.922Z,1004.23
2019-04-30T10:57:09.844Z,1004.21
2019-04-30T10:58:09.833Z,1004.17
2019-04-30T10:59:09.822Z,1004.24
2019-04-30T11:00:10.119Z,1004.21
2019-04-30T11:01:09.822Z,1004.15
2019-04-30T11:02:09.789Z,1004.19
2019-04-30T11:03:19.158Z,1004.17
2019-04-30T11:04:10.773Z,1004.16
2019-04-30T11:05:09.756Z,1004.15
2019-04-30T11:06:09.768Z,1004.10
2019-04-30T11:07:09.734Z,1004.11
2019-04-30T11:08:09.721Z,1004.12
2019-04-30T11:09:09.713Z,1004.12
2019-04-30T11:10:09.700Z,1004.09
2019-04-30T11:11:09.709Z,1004.11
2019-04-30T11:12:09.680Z,1004.06
2019-04-30T11:13:09.666Z,1004.09
2019-04-30T11:14:09.658Z,1004.07
2019-04-30T11:15:09.643Z,1004.09
2019-04-30T11:16:15.117Z,1004.07
2019-04-30T11:17:10.795Z,1004.03
2019-04-30T11:18:09.912Z,1004.00
2019-04-30T11:19:10.656Z,1003.97
2019-04-30T11:20:10.426Z,1003.95
2019-04-30T11:21:09.894Z,1003.95
2019-04-30T11:22:09.686Z,1003.92
2019-04-30T11:23:14.690Z,1003.88
2019-04-30T11:24:10.618Z,1003.95
2019-04-30T11:25:10.165Z,1003.92
2019-04-30T11:26:10.130Z,1003.90
2019-04-30T11:27:11.082Z,1003.86
2019-04-30T11:28:10.093Z,1003.85
2019-04-30T11:29:09.684Z,1003.81
2019-04-30T11:30:20.401Z,1003.83
2019-04-30T11:31:10.644Z,1003.91
2019-04-30T11:32:09.698Z,1003.88
2019-04-30T11:33:09.653Z,1003.85
2019-04-30T11:34:09.445Z,1003.80
2019-04-30T11:35:09.424Z,1003.77
2019-04-30T11:36:09.724Z,1003.81
2019-04-30T11:37:09.420Z,1003.79
2019-04-30T11:38:09.391Z,1003.79
2019-04-30T11:39:09.376Z,1003.78
2019-04-30T11:40:09.366Z,1003.74
2019-04-30T11:41:09.355Z,1003.72
2019-04-30T11:42:09.364Z,1003.71
2019-04-30T11:43:09.332Z,1003.71
2019-04-30T11:44:09.341Z,1003.72
2019-04-30T11:45:09.309Z,1003.72
2019-04-30T11:46:09.300Z,1003.71
2019-04-30T11:47:09.609Z,1003.70
2019-04-30T11:48:09.276Z,1003.66
2019-04-30T11:49:09.720Z,1003.59
2019-04-30T11:50:09.257Z,1003.56
2019-04-30T11:51:09.512Z,1003.59
2019-04-30T11:52:09.232Z,1003.59
2019-04-30T11:53:22.643Z,1003.55
2019-04-30T11:54:10.208Z,1003.58
2019-04-30T11:55:09.765Z,1003.59
2019-04-30T11:56:09.199Z,1003.51
2019-04-30T11:57:09.180Z,1003.58
2019-04-30T11:58:21.143Z,1003.54
2019-04-30T11:59:10.153Z,1003.52
2019-04-30T12:00:10.758Z,1003.50
2019-04-30T12:01:09.415Z,1003.51
2019-04-30T12:02:09.124Z,1003.48
2019-04-30T12:03:09.148Z,1003.49
2019-04-30T12:04:09.411Z,1003.47
2019-04-30T12:05:09.087Z,1003.47